sensor_id;sensor_type;location;lat;lon;timestamp;P1;durP1;ratioP1;P2;durP2;ratioP2
19810;SDS011;10065;49.632;8.346;2023-06-14T00:02:03;6.10;;;4.20;;
19810;SDS011;10065;49.632;8.346;2023-06-14T00:04:35;6.80;;;4.47;;
19810;SDS011;10065;49.632;8.346;2023-06-14T00:07:03;7.23;;;4.50;;
19810;SDS011;10065;49.632;8.346;2023-06-14T00:09:32;7.97;;;4.80;;
19810;SDS011;10065;49.632;8.346;2023-06-14T00:12:00;9.70;;;4.47;;
19810;SDS011;10065;49.632;8.346;2023-06-14T00:14:28;7.38;;;4.85;;
19810;SDS011;10065;49.632;8.346;2023-06-14T00:16:56;8.20;;;5.47;;
19810;SDS011;10065;49.632;8.346;2023-06-14T00:19:24;6.07;;;4.37;;
19810;SDS011;10065;49.632;8.346;2023-06-14T00:21:52;7.35;;;4.53;;
19810;SDS011;10065;49.632;8.346;2023-06-14T00:24:20;9.77;;;5.50;;
19810;SDS011;10065;49.632;8.346;2023-06-14T00:26:49;8.40;;;4.63;;
19810;SDS011;10065;49.632;8.346;2023-06-14T00:29:17;7.37;;;4.70;;
19810;SDS011;10065;49.632;8.346;2023-06-14T00:31:45;7.43;;;4.97;;
19810;SDS011;10065;49.632;8.346;2023-06-14T00:34:12;7.40;;;4.60;;
19810;SDS011;10065;49.632;8.346;2023-06-14T00:36:40;9.67;;;4.77;;
19810;SDS011;10065;49.632;8.346;2023-06-14T00:39:08;10.90;;;5.07;;
19810;SDS011;10065;49.632;8.346;2023-06-14T00:41:36;6.93;;;4.70;;
19810;SDS011;10065;49.632;8.346;2023-06-14T00:44:05;10.83;;;5.57;;
19810;SDS011;10065;49.632;8.346;2023-06-14T00:46:33;8.57;;;4.80;;
19810;SDS011;10065;49.632;8.346;2023-06-14T00:49:01;8.13;;;5.17;;
19810;SDS011;10065;49.632;8.346;2023-06-14T00:51:29;10.43;;;5.13;;
19810;SDS011;10065;49.632;8.346;2023-06-14T00:53:57;6.17;;;4.87;;
19810;SDS011;10065;49.632;8.346;2023-06-14T00:56:25;8.97;;;5.50;;
19810;SDS011;10065;49.632;8.346;2023-06-14T00:58:53;9.97;;;5.47;;
19810;SDS011;10065;49.632;8.346;2023-06-14T01:01:24;7.87;;;5.60;;
19810;SDS011;10065;49.632;8.346;2023-06-14T01:03:51;14.43;;;5.10;;
19810;SDS011;10065;49.632;8.346;2023-06-14T01:06:21;12.10;;;5.40;;
19810;SDS011;10065;49.632;8.346;2023-06-14T01:09:01;8.40;;;5.50;;
19810;SDS011;10065;49.632;8.346;2023-06-14T01:11:36;7.77;;;5.07;;
19810;SDS011;10065;49.632;8.346;2023-06-14T01:14:08;8.67;;;5.30;;
19810;SDS011;10065;49.632;8.346;2023-06-14T01:16:40;8.23;;;5.23;;
19810;SDS011;10065;49.632;8.346;2023-06-14T01:19:09;9.30;;;5.27;;
19810;SDS011;10065;49.632;8.346;2023-06-14T01:21:40;8.13;;;5.17;;
19810;SDS011;10065;49.632;8.346;2023-06-14T01:24:10;7.63;;;5.50;;
19810;SDS011;10065;49.632;8.346;2023-06-14T01:26:38;10.47;;;5.80;;
19810;SDS011;10065;49.632;8.346;2023-06-14T01:29:12;8.07;;;5.77;;
19810;SDS011;10065;49.632;8.346;2023-06-14T01:31:44;9.10;;;5.23;;
19810;SDS011;10065;49.632;8.346;2023-06-14T01:34:12;11.53;;;6.20;;
19810;SDS011;10065;49.632;8.346;2023-06-14T01:36:41;13.23;;;5.97;;
19810;SDS011;10065;49.632;8.346;2023-06-14T01:39:13;12.87;;;5.60;;
19810;SDS011;10065;49.632;8.346;2023-06-14T01:41:42;7.83;;;5.37;;
19810;SDS011;10065;49.632;8.346;2023-06-14T01:44:12;7.23;;;5.07;;
19810;SDS011;10065;49.632;8.346;2023-06-14T01:46:42;8.37;;;5.47;;
19810;SDS011;10065;49.632;8.346;2023-06-14T01:49:11;9.73;;;5.83;;
19810;SDS011;10065;49.632;8.346;2023-06-14T01:51:39;9.70;;;5.30;;
19810;SDS011;10065;49.632;8.346;2023-06-14T01:54:06;7.67;;;4.97;;
19810;SDS011;10065;49.632;8.346;2023-06-14T01:56:35;8.50;;;5.57;;
19810;SDS011;10065;49.632;8.346;2023-06-14T01:59:03;8.67;;;5.80;;
19810;SDS011;10065;49.632;8.346;2023-06-14T02:01:31;8.93;;;5.40;;
19810;SDS011;10065;49.632;8.346;2023-06-14T02:04:00;8.73;;;5.27;;
19810;SDS011;10065;49.632;8.346;2023-06-14T02:06:28;7.03;;;5.50;;
19810;SDS011;10065;49.632;8.346;2023-06-14T02:08:56;11.70;;;5.43;;
19810;SDS011;10065;49.632;8.346;2023-06-14T02:11:23;10.97;;;5.43;;
19810;SDS011;10065;49.632;8.346;2023-06-14T02:13:54;7.10;;;5.30;;
19810;SDS011;10065;49.632;8.346;2023-06-14T02:16:22;16.50;;;5.37;;
19810;SDS011;10065;49.632;8.346;2023-06-14T02:18:50;11.77;;;5.90;;
19810;SDS011;10065;49.632;8.346;2023-06-14T02:21:18;7.70;;;5.80;;
19810;SDS011;10065;49.632;8.346;2023-06-14T02:23:46;6.97;;;4.53;;
19810;SDS011;10065;49.632;8.346;2023-06-14T02:26:14;8.43;;;5.03;;
19810;SDS011;10065;49.632;8.346;2023-06-14T02:28:42;7.50;;;4.90;;
19810;SDS011;10065;49.632;8.346;2023-06-14T02:31:11;9.93;;;5.00;;
19810;SDS011;10065;49.632;8.346;2023-06-14T02:33:38;7.30;;;4.83;;
19810;SDS011;10065;49.632;8.346;2023-06-14T02:36:06;7.10;;;5.07;;
19810;SDS011;10065;49.632;8.346;2023-06-14T02:38:34;8.77;;;4.87;;
19810;SDS011;10065;49.632;8.346;2023-06-14T02:41:01;7.53;;;5.30;;
19810;SDS011;10065;49.632;8.346;2023-06-14T02:43:30;8.10;;;5.40;;
19810;SDS011;10065;49.632;8.346;2023-06-14T02:45:58;8.87;;;5.40;;
19810;SDS011;10065;49.632;8.346;2023-06-14T02:48:27;9.00;;;5.47;;
19810;SDS011;10065;49.632;8.346;2023-06-14T02:50:55;10.67;;;5.37;;
19810;SDS011;10065;49.632;8.346;2023-06-14T02:53:23;9.23;;;5.23;;
19810;SDS011;10065;49.632;8.346;2023-06-14T02:55:50;8.57;;;4.90;;
19810;SDS011;10065;49.632;8.346;2023-06-14T02:58:22;9.73;;;5.43;;
19810;SDS011;10065;49.632;8.346;2023-06-14T03:00:51;6.90;;;4.50;;
19810;SDS011;10065;49.632;8.346;2023-06-14T03:03:20;11.33;;;5.53;;
19810;SDS011;10065;49.632;8.346;2023-06-14T03:05:50;6.93;;;5.00;;
19810;SDS011;10065;49.632;8.346;2023-06-14T03:08:18;10.93;;;5.93;;
19810;SDS011;10065;49.632;8.346;2023-06-14T03:10:46;10.07;;;5.13;;
19810;SDS011;10065;49.632;8.346;2023-06-14T03:13:14;11.83;;;6.00;;
19810;SDS011;10065;49.632;8.346;2023-06-14T03:15:43;9.80;;;5.43;;
19810;SDS011;10065;49.632;8.346;2023-06-14T03:18:11;7.53;;;5.20;;
19810;SDS011;10065;49.632;8.346;2023-06-14T03:20:39;10.20;;;5.47;;
19810;SDS011;10065;49.632;8.346;2023-06-14T03:23:08;7.80;;;5.57;;
19810;SDS011;10065;49.632;8.346;2023-06-14T03:25:36;9.40;;;5.40;;
19810;SDS011;10065;49.632;8.346;2023-06-14T03:28:04;11.00;;;5.50;;
19810;SDS011;10065;49.632;8.346;2023-06-14T03:30:32;8.60;;;5.80;;
19810;SDS011;10065;49.632;8.346;2023-06-14T03:33:00;9.40;;;5.50;;
19810;SDS011;10065;49.632;8.346;2023-06-14T03:35:28;9.10;;;5.70;;
19810;SDS011;10065;49.632;8.346;2023-06-14T03:37:56;7.97;;;5.10;;
19810;SDS011;10065;49.632;8.346;2023-06-14T03:40:25;10.23;;;5.77;;
19810;SDS011;10065;49.632;8.346;2023-06-14T03:42:53;8.77;;;5.33;;
19810;SDS011;10065;49.632;8.346;2023-06-14T03:45:21;11.20;;;5.20;;
19810;SDS011;10065;49.632;8.346;2023-06-14T03:47:49;10.17;;;5.97;;
19810;SDS011;10065;49.632;8.346;2023-06-14T03:50:18;8.33;;;5.30;;
19810;SDS011;10065;49.632;8.346;2023-06-14T03:52:47;7.50;;;5.43;;
19810;SDS011;10065;49.632;8.346;2023-06-14T03:55:16;9.37;;;5.53;;
19810;SDS011;10065;49.632;8.346;2023-06-14T03:57:48;8.50;;;4.97;;
19810;SDS011;10065;49.632;8.346;2023-06-14T04:00:16;11.60;;;4.90;;
19810;SDS011;10065;49.632;8.346;2023-06-14T04:02:45;8.20;;;5.10;;
19810;SDS011;10065;49.632;8.346;2023-06-14T04:05:13;9.40;;;5.33;;
19810;SDS011;10065;49.632;8.346;2023-06-14T04:07:43;8.10;;;5.63;;
19810;SDS011;10065;49.632;8.346;2023-06-14T04:10:12;10.87;;;5.37;;
19810;SDS011;10065;49.632;8.346;2023-06-14T04:12:40;7.13;;;4.80;;
19810;SDS011;10065;49.632;8.346;2023-06-14T04:15:11;8.87;;;4.83;;
19810;SDS011;10065;49.632;8.346;2023-06-14T04:17:47;9.10;;;5.00;;
19810;SDS011;10065;49.632;8.346;2023-06-14T04:20:15;9.63;;;4.90;;
19810;SDS011;10065;49.632;8.346;2023-06-14T04:22:43;12.20;;;4.97;;
19810;SDS011;10065;49.632;8.346;2023-06-14T04:25:11;10.00;;;5.57;;
19810;SDS011;10065;49.632;8.346;2023-06-14T04:27:39;11.57;;;6.03;;
19810;SDS011;10065;49.632;8.346;2023-06-14T04:30:08;7.00;;;4.77;;
19810;SDS011;10065;49.632;8.346;2023-06-14T04:32:37;8.57;;;4.73;;
19810;SDS011;10065;49.632;8.346;2023-06-14T04:35:06;8.10;;;4.70;;
19810;SDS011;10065;49.632;8.346;2023-06-14T04:37:35;11.00;;;5.43;;
19810;SDS011;10065;49.632;8.346;2023-06-14T04:40:07;7.80;;;5.03;;
19810;SDS011;10065;49.632;8.346;2023-06-14T04:42:38;12.73;;;5.83;;
19810;SDS011;10065;49.632;8.346;2023-06-14T04:45:07;6.87;;;4.37;;
19810;SDS011;10065;49.632;8.346;2023-06-14T04:47:37;12.23;;;5.07;;
19810;SDS011;10065;49.632;8.346;2023-06-14T04:50:05;9.60;;;5.00;;
19810;SDS011;10065;49.632;8.346;2023-06-14T04:52:33;14.13;;;4.90;;
19810;SDS011;10065;49.632;8.346;2023-06-14T04:55:01;10.37;;;4.80;;
19810;SDS011;10065;49.632;8.346;2023-06-14T04:57:30;14.90;;;5.47;;
19810;SDS011;10065;49.632;8.346;2023-06-14T04:59:58;9.80;;;5.20;;
19810;SDS011;10065;49.632;8.346;2023-06-14T05:02:27;8.60;;;4.27;;
19810;SDS011;10065;49.632;8.346;2023-06-14T05:04:58;11.30;;;4.47;;
19810;SDS011;10065;49.632;8.346;2023-06-14T05:07:28;8.63;;;4.87;;
19810;SDS011;10065;49.632;8.346;2023-06-14T05:09:55;7.57;;;4.73;;
19810;SDS011;10065;49.632;8.346;2023-06-14T05:12:23;8.30;;;5.07;;
19810;SDS011;10065;49.632;8.346;2023-06-14T05:14:51;7.97;;;5.00;;
19810;SDS011;10065;49.632;8.346;2023-06-14T05:17:19;8.33;;;4.77;;
19810;SDS011;10065;49.632;8.346;2023-06-14T05:19:46;9.77;;;4.67;;
19810;SDS011;10065;49.632;8.346;2023-06-14T05:22:18;9.47;;;4.57;;
19810;SDS011;10065;49.632;8.346;2023-06-14T05:24:46;7.10;;;4.50;;
19810;SDS011;10065;49.632;8.346;2023-06-14T05:27:16;8.13;;;5.27;;
19810;SDS011;10065;49.632;8.346;2023-06-14T05:29:44;9.23;;;4.77;;
19810;SDS011;10065;49.632;8.346;2023-06-14T05:32:15;8.07;;;4.83;;
19810;SDS011;10065;49.632;8.346;2023-06-14T05:34:42;10.03;;;4.60;;
19810;SDS011;10065;49.632;8.346;2023-06-14T05:37:10;14.47;;;4.90;;
19810;SDS011;10065;49.632;8.346;2023-06-14T05:39:46;11.90;;;4.20;;
19810;SDS011;10065;49.632;8.346;2023-06-14T05:42:17;9.17;;;4.57;;
19810;SDS011;10065;49.632;8.346;2023-06-14T05:44:46;7.30;;;4.50;;
19810;SDS011;10065;49.632;8.346;2023-06-14T05:47:15;12.27;;;4.90;;
19810;SDS011;10065;49.632;8.346;2023-06-14T05:49:43;12.60;;;5.30;;
19810;SDS011;10065;49.632;8.346;2023-06-14T05:52:11;11.13;;;5.53;;
19810;SDS011;10065;49.632;8.346;2023-06-14T05:54:39;9.83;;;4.80;;
19810;SDS011;10065;49.632;8.346;2023-06-14T05:57:09;12.43;;;5.37;;
19810;SDS011;10065;49.632;8.346;2023-06-14T05:59:38;8.40;;;4.63;;
19810;SDS011;10065;49.632;8.346;2023-06-14T06:02:06;12.67;;;4.87;;
19810;SDS011;10065;49.632;8.346;2023-06-14T06:04:34;6.40;;;4.27;;
19810;SDS011;10065;49.632;8.346;2023-06-14T06:07:02;9.00;;;4.93;;
19810;SDS011;10065;49.632;8.346;2023-06-14T06:09:31;8.83;;;4.73;;
19810;SDS011;10065;49.632;8.346;2023-06-14T06:12:06;8.60;;;4.37;;
19810;SDS011;10065;49.632;8.346;2023-06-14T06:14:39;9.07;;;4.70;;
19810;SDS011;10065;49.632;8.346;2023-06-14T06:17:09;16.63;;;5.33;;
19810;SDS011;10065;49.632;8.346;2023-06-14T06:19:37;7.67;;;4.63;;
19810;SDS011;10065;49.632;8.346;2023-06-14T06:22:08;13.73;;;4.67;;
19810;SDS011;10065;49.632;8.346;2023-06-14T06:24:38;8.27;;;4.47;;
19810;SDS011;10065;49.632;8.346;2023-06-14T06:27:08;6.50;;;4.17;;
19810;SDS011;10065;49.632;8.346;2023-06-14T06:29:36;8.00;;;4.67;;
19810;SDS011;10065;49.632;8.346;2023-06-14T06:32:08;8.27;;;4.53;;
19810;SDS011;10065;49.632;8.346;2023-06-14T06:34:36;9.88;;;4.80;;
19810;SDS011;10065;49.632;8.346;2023-06-14T06:37:06;13.70;;;4.20;;
19810;SDS011;10065;49.632;8.346;2023-06-14T06:39:34;7.60;;;4.40;;
19810;SDS011;10065;49.632;8.346;2023-06-14T06:42:02;8.60;;;4.23;;
19810;SDS011;10065;49.632;8.346;2023-06-14T06:44:40;9.70;;;4.80;;
19810;SDS011;10065;49.632;8.346;2023-06-14T06:47:09;6.67;;;4.27;;
19810;SDS011;10065;49.632;8.346;2023-06-14T06:49:37;7.07;;;4.67;;
19810;SDS011;10065;49.632;8.346;2023-06-14T06:52:05;11.53;;;4.70;;
19810;SDS011;10065;49.632;8.346;2023-06-14T06:54:34;13.97;;;4.90;;
19810;SDS011;10065;49.632;8.346;2023-06-14T06:57:02;12.70;;;4.40;;
19810;SDS011;10065;49.632;8.346;2023-06-14T06:59:30;6.63;;;4.27;;
19810;SDS011;10065;49.632;8.346;2023-06-14T07:01:58;7.90;;;3.97;;
19810;SDS011;10065;49.632;8.346;2023-06-14T07:04:27;11.20;;;4.50;;
19810;SDS011;10065;49.632;8.346;2023-06-14T07:06:54;35.88;;;5.13;;
19810;SDS011;10065;49.632;8.346;2023-06-14T07:09:22;7.10;;;4.20;;
19810;SDS011;10065;49.632;8.346;2023-06-14T07:11:50;12.18;;;3.85;;
19810;SDS011;10065;49.632;8.346;2023-06-14T07:14:18;19.83;;;4.53;;
19810;SDS011;10065;49.632;8.346;2023-06-14T07:16:49;7.22;;;4.00;;
19810;SDS011;10065;49.632;8.346;2023-06-14T07:19:17;6.43;;;4.05;;
19810;SDS011;10065;49.632;8.346;2023-06-14T07:21:46;9.32;;;4.22;;
19810;SDS011;10065;49.632;8.346;2023-06-14T07:24:14;6.80;;;4.43;;
19810;SDS011;10065;49.632;8.346;2023-06-14T07:26:42;10.55;;;4.05;;
19810;SDS011;10065;49.632;8.346;2023-06-14T07:29:09;8.55;;;4.22;;
19810;SDS011;10065;49.632;8.346;2023-06-14T07:31:37;7.05;;;4.20;;
19810;SDS011;10065;49.632;8.346;2023-06-14T07:34:05;11.35;;;4.25;;
19810;SDS011;10065;49.632;8.346;2023-06-14T07:36:33;7.88;;;4.13;;
19810;SDS011;10065;49.632;8.346;2023-06-14T07:39:02;9.52;;;3.95;;
19810;SDS011;10065;49.632;8.346;2023-06-14T07:41:32;6.35;;;3.95;;
19810;SDS011;10065;49.632;8.346;2023-06-14T07:44:00;6.72;;;3.60;;
19810;SDS011;10065;49.632;8.346;2023-06-14T07:46:27;7.32;;;4.28;;
19810;SDS011;10065;49.632;8.346;2023-06-14T07:48:55;8.70;;;3.90;;
19810;SDS011;10065;49.632;8.346;2023-06-14T07:51:23;10.27;;;3.72;;
19810;SDS011;10065;49.632;8.346;2023-06-14T07:53:51;10.52;;;4.13;;
19810;SDS011;10065;49.632;8.346;2023-06-14T07:56:20;11.40;;;4.00;;
19810;SDS011;10065;49.632;8.346;2023-06-14T07:58:47;6.57;;;4.10;;
19810;SDS011;10065;49.632;8.346;2023-06-14T08:01:15;9.18;;;4.20;;
19810;SDS011;10065;49.632;8.346;2023-06-14T08:03:43;7.10;;;3.80;;
19810;SDS011;10065;49.632;8.346;2023-06-14T08:06:11;10.45;;;4.10;;
19810;SDS011;10065;49.632;8.346;2023-06-14T08:08:41;8.95;;;4.60;;
19810;SDS011;10065;49.632;8.346;2023-06-14T08:11:08;8.13;;;4.22;;
19810;SDS011;10065;49.632;8.346;2023-06-14T08:13:37;10.82;;;4.20;;
19810;SDS011;10065;49.632;8.346;2023-06-14T08:16:05;6.63;;;3.95;;
19810;SDS011;10065;49.632;8.346;2023-06-14T08:18:33;6.80;;;3.95;;
19810;SDS011;10065;49.632;8.346;2023-06-14T08:21:01;14.57;;;4.60;;
19810;SDS011;10065;49.632;8.346;2023-06-14T12:43:51;5.28;;;2.10;;
19810;SDS011;10065;49.632;8.346;2023-06-14T19:53:42;3.92;;;2.65;;
19810;SDS011;10065;49.632;8.346;2023-06-14T19:57:21;8.18;;;2.60;;
19810;SDS011;10065;49.632;8.346;2023-06-14T22:54:21;6.83;;;2.63;;
19810;SDS011;10065;49.632;8.346;2023-06-14T23:01:20;3.50;;;2.50;;
19810;SDS011;10065;49.632;8.346;2023-06-14T23:04:49;4.43;;;2.93;;
19810;SDS011;10065;49.632;8.346;2023-06-14T23:19:40;6.47;;;2.90;;
